Data for 01/07/2015

Time Sea-Level Adjusted Pressure Absolute Pressure Temperature Relative Humidity Dew Point   
(mb) (inHg) (mb) (inHg) (C) (F) (%) (C) (F)
00:05 1034 30.53 863 25.48 -11.8 10.8 75 -15.3 4.5
00:10 1034 30.53 863 25.48 -11.8 10.7 75 -15.4 4.4
00:15 1034 30.53 863 25.48 -11.9 10.7 76 -15.3 4.4
00:20 1034 30.53 863 25.48 -11.9 10.6 75 -15.6 4
00:25 1034 30.53 864 25.51 -11.9 10.5 75 -15.5 4.1
00:30 1034 30.53 864 25.51 -11.9 10.5 75 -15.6 4
00:35 1034 30.53 864 25.51 -12.1 10.3 75 -15.6 4
00:40 1034 30.53 864 25.51 -12.2 10.1 76 -15.7 3.8
00:45 1034 30.53 864 25.51 -12.2 10 75 -15.8 3.5
00:50 1034 30.53 864 25.51 -12.4 9.6 76 -15.9 3.4
00:55 1034 30.53 864 25.51 -12.4 9.7 75 -15.9 3.3
01:00 1034 30.53 864 25.51 -12.3 9.8 75 -15.9 3.3
01:05 1034 30.53 863 25.48 -12.4 9.7 75 -16 3.2
01:10 1035 30.56 864 25.51 -12.4 9.7 74 -16 3.1
01:15 1035 30.56 864 25.51 -12.3 9.9 74 -16 3.2
01:20 1035 30.56 864 25.51 -12.2 10 74 -16 3.2
01:25 1035 30.56 864 25.51 -12.2 10 74 -16 3.2
01:30 1035 30.56 864 25.51 -12.4 9.7 74 -16.1 3
01:35 1035 30.56 864 25.51 -12.4 9.6 74 -16.1 3
01:40 1035 30.56 864 25.51 -12.5 9.6 74 -16.1 3
01:45 1035 30.56 864 25.51 -12.5 9.5 74 -16.2 2.9
01:50 1035 30.56 864 25.51 -12.6 9.4 74 -16.2 2.8
01:55 1035 30.56 864 25.51 -12.6 9.4 74 -16.2 2.8
02:00 1035 30.56 864 25.51 -12.4 9.6 75 -16 3.2
02:05 1035 30.56 864 25.51 -12.3 9.9 73 -16.2 2.9
02:10 1035 30.56 864 25.51 -12.2 10 74 -16 3.1
02:15 1035 30.56 864 25.51 -12.2 10.1 74 -15.9 3.3
02:20 1035 30.56 864 25.51 -12.2 10 74 -15.9 3.4
02:25 1035 30.56 865 25.54 -12.2 10.1 74 -15.9 3.3
02:30 1035 30.56 865 25.54 -12.2 10.1 74 -15.9 3.3
02:35 1035 30.56 864 25.51 -12.1 10.1 73 -16 3.2
02:40 1035 30.56 864 25.51 -12.2 10 73 -16.1 3
02:45 1035 30.56 864 25.51 -12.2 10 73 -16 3.1
02:50 1035 30.56 864 25.51 -12.2 10.1 72 -16.2 2.9
02:55 1035 30.56 864 25.51 -12.4 9.7 72 -16.4 2.5
03:00 1035 30.56 864 25.51 -12.6 9.4 73 -16.5 2.3
03:05 1035 30.56 864 25.51 -12.5 9.4 72 -16.6 2.1
03:10 1035 30.56 864 25.51 -12.6 9.3 73 -16.6 2.1
03:15 1035 30.56 864 25.51 -12.6 9.3 73 -16.6 2.2
03:20 1035 30.56 864 25.51 -12.5 9.6 73 -16.4 2.5
03:25 1035 30.56 865 25.54 -12.3 9.9 73 -16.3 2.7
03:30 1035 30.56 865 25.54 -12.2 10.1 72 -16.3 2.6
03:35 1036 30.59 865 25.54 -12.2 10.1 72 -16.2 2.8
03:40 1035 30.56 865 25.54 -12.1 10.2 72 -16.2 2.8
03:45 1036 30.59 865 25.54 -12.1 10.2 72 -16.2 2.8
03:50 1036 30.59 865 25.54 -12.1 10.2 72 -16.2 2.8
03:55 1036 30.59 865 25.54 -12.2 10.1 72 -16.3 2.6
04:00 1036 30.59 865 25.54 -12.2 10.1 71 -16.4 2.5
04:05 1036 30.59 865 25.54 -12.1 10.2 71 -16.3 2.7
04:10 1036 30.59 865 25.54 -12.2 10 72 -16.4 2.6
04:15 1036 30.59 865 25.54 -12.3 9.9 71 -16.5 2.4
04:20 1036 30.59 865 25.54 -12.3 9.8 72 -16.3 2.6
04:25 1036 30.59 865 25.54 -12.3 9.8 72 -16.4 2.4
04:30 1036 30.59 865 25.54 -12.3 9.8 72 -16.4 2.5
04:35 1036 30.59 865 25.54 -12.4 9.8 72 -16.4 2.5
04:40 1036 30.59 865 25.54 -12.5 9.6 72 -16.5 2.3
04:45 1036 30.59 865 25.54 -12.6 9.3 72 -16.6 2.1
04:50 1036 30.59 865 25.54 -12.7 9.2 73 -16.6 2.2
04:55 1036 30.59 865 25.54 -12.6 9.3 73 -16.5 2.2
05:00 1035 30.56 865 25.54 -12.7 9.2 73 -16.6 2.2
05:05 1035 30.56 865 25.54 -12.9 8.8 73 -16.8 1.8
05:10 1035 30.56 865 25.54 -13 8.6 74 -16.7 1.9
05:15 1035 30.56 864 25.51 -13 8.7 74 -16.7 1.9
05:20 1035 30.56 864 25.51 -13 8.7 74 -16.7 1.9
05:25 1035 30.56 864 25.51 -13 8.5 74 -16.7 2
05:30 1035 30.56 864 25.51 -13 8.6 74 -16.7 2
05:35 1035 30.56 864 25.51 -12.9 8.7 74 -16.6 2.1
05:40 1035 30.56 864 25.51 -12.8 8.9 74 -16.5 2.3
05:45 1035 30.56 864 25.51 -12.7 9.1 74 -16.4 2.5
05:50 1035 30.56 864 25.51 -12.8 9.1 74 -16.4 2.5
05:55 1035 30.56 864 25.51 -12.7 9.1 73 -16.6 2.1
06:00 1035 30.56 864 25.51 -12.7 9.1 74 -16.5 2.2
06:05 1035 30.56 864 25.51 -12.8 9.1 74 -16.4 2.5
06:10 1035 30.56 864 25.51 -12.7 9.1 74 -16.4 2.4
06:15 1035 30.56 864 25.51 -12.8 9 74 -16.5 2.4
06:20 1035 30.56 864 25.51 -12.7 9.1 74 -16.5 2.2
06:25 1035 30.56 864 25.51 -12.7 9.1 74 -16.5 2.2
06:30 1035 30.56 864 25.51 -12.7 9.1 73 -16.6 2.1
06:35 1035 30.56 864 25.51 -12.7 9.1 73 -16.6 2.1
06:40 1035 30.56 864 25.51 -12.8 9 73 -16.7 1.9
06:45 1034 30.53 864 25.51 -12.8 8.9 73 -16.7 1.9
06:50 1034 30.53 864 25.51 -12.8 8.9 73 -16.6 2.1
06:55 1034 30.53 863 25.48 -12.9 8.9 75 -16.5 2.4
07:00 1034 30.53 863 25.48 -13 8.7 75 -16.6 2.2
07:05 1034 30.53 863 25.48 -12.9 8.7 75 -16.5 2.3
07:10 1034 30.53 863 25.48 -12.9 8.7 75 -16.5 2.3
07:15 1034 30.53 863 25.48 -13 8.7 75 -16.6 2.2
07:20 1034 30.53 863 25.48 -12.9 8.8 74 -16.6 2.1
07:25 1034 30.53 863 25.48 -12.9 8.8 72 -16.9 1.6
07:30 1034 30.53 863 25.48 -12.8 8.9 73 -16.7 2
07:35 1034 30.53 863 25.48 -12.8 8.9 75 -16.5 2.4
07:40 1034 30.53 863 25.48 -12.8 8.9 74 -16.5 2.3
07:45 1034 30.53 863 25.48 -12.8 8.9 73 -16.8 1.8
07:50 1034 30.53 863 25.48 -12.9 8.8 72 -16.9 1.6
07:55 1034 30.53 863 25.48 -12.9 8.8 73 -16.8 1.8
08:00 1034 30.53 863 25.48 -12.8 8.9 74 -16.5 2.2
08:05 1034 30.53 863 25.48 -12.8 9 75 -16.4 2.5
08:10 1034 30.53 863 25.48 -12.7 9.2 74 -16.4 2.4
08:15 1034 30.53 863 25.48 -12.7 9.2 74 -16.4 2.4
08:20 1034 30.53 863 25.48 -12.7 9.1 74 -16.5 2.3
08:25 1033 30.5 863 25.48 -12.7 9.1 72 -16.8 1.8
08:30 1033 30.5 863 25.48 -12.8 9 72 -16.8 1.7
08:35 1033 30.5 863 25.48 -12.8 8.9 73 -16.8 1.8
08:40 1033 30.5 863 25.48 -12.9 8.9 73 -16.8 1.8
08:45 1033 30.5 863 25.48 -12.9 8.8 73 -16.8 1.8
08:50 1033 30.5 863 25.48 -12.9 8.7 73 -16.8 1.8
08:55 1033 30.5 863 25.48 -12.9 8.9 73 -16.7 2
09:00 1033 30.5 862 25.45 -12.9 8.9 73 -16.7 2
09:05 1033 30.5 862 25.45 -12.9 8.8 74 -16.6 2.1
09:10 1033 30.5 862 25.45 -12.9 8.9 74 -16.5 2.2
09:15 1033 30.5 862 25.45 -12.8 8.9 74 -16.5 2.3
09:20 1033 30.5 862 25.45 -12.9 8.9 74 -16.5 2.3
09:25 1033 30.5 862 25.45 -12.8 9 74 -16.5 2.3
09:30 1033 30.5 862 25.45 -12.7 9.2 73 -16.6 2.1
09:35 1033 30.5 862 25.45 -12.6 9.4 73 -16.5 2.3
09:40 1033 30.5 862 25.45 -12.5 9.6 73 -16.4 2.5
09:45 1033 30.5 862 25.45 -12.2 10 72 -16.4 2.6
09:50 1033 30.5 862 25.45 -12 10.5 71 -16.2 2.9
09:55 1033 30.5 862 25.45 -11.9 10.6 71 -16.2 2.9
10:00 1033 30.5 862 25.45 -11.9 10.6 71 -16.2 2.8
10:05 1033 30.5 862 25.45 -11.7 11 70 -16.1 3
10:10 1033 30.5 862 25.45 -11.2 11.8 68 -16 3.2
10:15 1033 30.5 862 25.45 -11.2 11.9 68 -16 3.2
10:20 1033 30.5 862 25.45 -11.1 12 67 -16 3.2
10:25 1033 30.5 862 25.45 -11.2 11.9 68 -16 3.3
10:30 1033 30.5 862 25.45 -11.2 11.8 68 -16 3.2
10:35 1033 30.5 862 25.45 -11.1 12 69 -15.8 3.6
10:40 1033 30.5 862 25.45 -11 12.2 69 -15.7 3.8
10:45 1032 30.47 862 25.45 -10.7 12.8 67 -15.6 3.9
10:50 1032 30.47 862 25.45 -10.1 13.8 64 -15.6 3.9
10:55 1032 30.47 861 25.43 -9.7 14.6 65 -15.1 4.7
11:00 1032 30.47 861 25.43 -9.7 14.6 64 -15.3 4.5
11:05 1032 30.47 861 25.43 -9.2 15.5 61 -15.3 4.4
11:10 1032 30.47 861 25.43 -9 15.8 62 -14.9 5.2
11:15 1032 30.47 861 25.43 -8.8 16.2 62 -14.8 5.4
11:20 1032 30.47 861 25.43 -8.4 16.8 62 -14.5 5.9
11:25 1032 30.47 861 25.43 -8.8 16.1 63 -14.7 5.5
11:30 1032 30.47 861 25.43 -8.3 17.2 62 -14.4 6.1
11:35 1032 30.47 861 25.43 -7.8 18 60 -14.2 6.5
11:40 1032 30.47 861 25.43 -8 17.6 61 -14.2 6.4
11:45 1032 30.47 861 25.43 -7.7 18.2 61 -14 6.8
11:50 1032 30.47 861 25.43 -7.7 18.2 61 -13.8 7.1
11:55 1032 30.47 861 25.43 -8.1 17.5 62 -14.1 6.6
12:00 1032 30.47 861 25.43 -7.4 18.8 59 -14.1 6.6
12:05 1032 30.47 861 25.43 -7.2 19.1 60 -13.7 7.4
12:10 1031 30.45 861 25.43 -7.2 19 60 -13.7 7.3
12:15 1031 30.45 861 25.43 -6.9 19.5 58 -13.9 7
12:20 1031 30.45 861 25.43 -6.6 20.1 57 -13.9 7.1
12:25 1031 30.45 860 25.4 -6.2 20.9 56 -13.5 7.7
12:30 1031 30.45 860 25.4 -6 21.2 56 -13.4 7.9
12:35 1031 30.45 860 25.4 -5.7 21.7 58 -12.7 9.1
12:40 1031 30.45 860 25.4 -6.2 20.8 61 -12.7 9.2
12:45 1031 30.45 860 25.4 -6.8 19.8 61 -13.1 8.3
12:50 1031 30.45 860 25.4 -6.5 20.3 59 -13.3 8.1
12:55 1031 30.45 860 25.4 -6.5 20.4 61 -12.8 9
13:00 1030 30.42 860 25.4 -6.4 20.5 61 -12.8 8.9
13:05 1030 30.42 860 25.4 -6.1 21.1 60 -12.7 9.1
13:10 1030 30.42 859 25.37 -5.8 21.5 58 -12.8 8.9
13:15 1030 30.42 859 25.37 -5.3 22.4 59 -12.2 10
13:20 1030 30.42 859 25.37 -4.8 23.3 55 -12.4 9.6
13:25 1030 30.42 859 25.37 -4.3 24.2 55 -12.1 10.3
13:30 1030 30.42 859 25.37 -5 22.9 59 -11.9 10.6
13:35 1029 30.39 859 25.37 -5.8 21.5 62 -12 10.4
13:40 1029 30.39 859 25.37 -6 21.1 63 -12.1 10.2
13:45 1029 30.39 858 25.34 -6.1 21.1 62 -12.2 10
13:50 1029 30.39 858 25.34 -5.3 22.5 59 -12.2 10.1
13:55 1029 30.39 858 25.34 -4.8 23.3 58 -11.9 10.5
14:00 1029 30.39 858 25.34 -5.2 22.6 59 -12 10.4
14:05 1029 30.39 858 25.34 -5.5 22.1 61 -12 10.5
14:10 1029 30.39 858 25.34 -5.5 22 62 -11.7 11
14:15 1029 30.39 858 25.34 -6.2 20.8 65 -11.8 10.8
14:20 1029 30.39 858 25.34 -7.3 18.9 69 -12 10.3
14:25 1029 30.39 858 25.34 -7.4 18.7 68 -12.2 10
14:30 1028 30.36 858 25.34 -6.8 19.8 67 -11.8 10.7
14:35 1028 30.36 858 25.34 -6.8 19.7 68 -11.8 10.8
14:40 1028 30.36 858 25.34 -6.7 20 67 -11.8 10.7
14:45 1028 30.36 857 25.31 -6.7 19.9 67 -11.9 10.6
14:50 1028 30.36 857 25.31 -7 19.5 67 -12.1 10.2
14:55 1028 30.36 857 25.31 -7.2 19 69 -12.1 10.3
15:00 1028 30.36 857 25.31 -7.3 18.8 70 -11.9 10.6
15:05 1027 30.33 857 25.31 -7 19.4 69 -11.7 10.9
15:10 1027 30.33 857 25.31 -7.2 19 71 -11.6 11.1
15:15 1027 30.33 856 25.28 -6.8 19.8 68 -11.8 10.8
15:20 1027 30.33 856 25.28 -6.7 19.9 68 -11.6 11.1
15:25 1027 30.33 856 25.28 -6.7 20 69 -11.4 11.5
15:30 1027 30.33 856 25.28 -6.5 20.2 68 -11.5 11.2
15:35 1027 30.33 856 25.28 -6.4 20.5 67 -11.5 11.2
15:40 1027 30.33 856 25.28 -6.4 20.5 68 -11.4 11.4
15:45 1027 30.33 856 25.28 -6.3 20.6 66 -11.6 11.1
15:50 1026 30.3 856 25.28 -6.2 20.9 67 -11.4 11.5
15:55 1026 30.3 855 25.25 -5.9 21.5 67 -11 12.1
16:00 1026 30.3 855 25.25 -5.7 21.7 65 -11.2 11.8
16:05 1026 30.3 855 25.25 -6 21.3 68 -10.9 12.3
16:10 1026 30.3 855 25.25 -6.1 21 68 -11.1 12
16:15 1026 30.3 855 25.25 -6.2 20.8 67 -11.4 11.5
16:20 1025 30.27 855 25.25 -6.1 21.1 67 -11.2 11.9
16:25 1025 30.27 854 25.22 -6 21.2 67 -11.2 11.9
16:30 1025 30.27 854 25.22 -5.8 21.6 67 -11 12.2
16:35 1025 30.27 854 25.22 -5.6 21.9 66 -11 12.2
16:40 1026 30.3 855 25.25 -5.4 22.3 65 -10.9 12.3
16:45 1025 30.27 855 25.25 -5 22.9 65 -10.7 12.7
16:50 1025 30.27 855 25.25 -5 23.1 64 -10.7 12.8
16:55 1026 30.3 855 25.25 -4.9 23.2 64 -10.7 12.8
17:00 1026 30.3 855 25.25 -5.3 22.5 67 -10.5 13.1
17:05 1026 30.3 855 25.25 -5.5 22.2 67 -10.6 13
17:10 1025 30.27 855 25.25 -5.7 21.8 68 -10.7 12.7
17:15 1025 30.27 855 25.25 -5.7 21.7 69 -10.6 13
17:20 1025 30.27 854 25.22 -5.8 21.6 70 -10.4 13.2
17:25 1025 30.27 854 25.22 -5.7 21.7 69 -10.5 13.1
17:30 1025 30.27 854 25.22 -5.5 22 70 -10.2 13.6
17:35 1025 30.27 854 25.22 -5.4 22.2 68 -10.5 13.1
17:40 1025 30.27 854 25.22 -5.6 22 69 -10.5 13.2
17:45 1024 30.24 854 25.22 -5.6 21.9 69 -10.5 13.2
17:50 1024 30.24 853 25.19 -5.7 21.8 69 -10.5 13.1
17:55 1024 30.24 853 25.19 -5.7 21.7 69 -10.5 13.1
18:00 1024 30.24 853 25.19 -5.6 22 68 -10.6 12.9
18:05 1024 30.24 853 25.19 -5.7 21.7 69 -10.5 13.2
18:10 1024 30.24 853 25.19 -5.6 21.9 69 -10.4 13.3
18:15 1024 30.24 853 25.19 -5.6 22 70 -10.2 13.7
18:20 1024 30.24 853 25.19 -5.5 22.1 70 -10.2 13.6
18:25 1024 30.24 853 25.19 -5.6 22 71 -10 13.9
18:30 1024 30.24 853 25.19 -5.4 22.2 69 -10.3 13.5
18:35 1024 30.24 853 25.19 -5.2 22.7 70 -9.9 14.2
18:40 1024 30.24 854 25.22 -5.3 22.5 70 -10 14
18:45 1024 30.24 854 25.22 -5.3 22.5 71 -9.8 14.4
18:50 1024 30.24 854 25.22 -5.2 22.6 70 -9.8 14.3
18:55 1024 30.24 853 25.19 -5.3 22.5 72 -9.6 14.7
19:00 1024 30.24 853 25.19 -5.3 22.5 73 -9.5 15
19:05 1024 30.24 853 25.19 -5.1 22.8 73 -9.1 15.5
19:10 1024 30.24 853 25.19 -4.8 23.4 72 -9 15.8
19:15 1024 30.24 853 25.19 -4.6 23.8 73 -8.7 16.3
19:20 1024 30.24 853 25.19 -4.3 24.2 71 -8.8 16.1
19:25 1024 30.24 853 25.19 -4.2 24.4 71 -8.7 16.4
19:30 1023 30.21 853 25.19 -4.4 24.1 72 -8.7 16.4
19:35 1023 30.21 853 25.19 -4.6 23.7 73 -8.7 16.4
19:40 1023 30.21 853 25.19 -4.7 23.6 74 -8.7 16.4
19:45 1023 30.21 852 25.16 -4.8 23.4 74 -8.7 16.4
19:50 1023 30.21 853 25.19 -4.9 23.2 75 -8.7 16.3
19:55 1023 30.21 852 25.16 -4.9 23.1 74 -8.9 16
20:00 1023 30.21 852 25.16 -4.7 23.5 73 -8.9 16
20:05 1023 30.21 852 25.16 -4.6 23.7 73 -8.7 16.3
20:10 1023 30.21 852 25.16 -4.8 23.4 75 -8.6 16.6
20:15 1023 30.21 852 25.16 -5 23.1 76 -8.5 16.7
20:20 1022 30.18 851 25.13 -5.1 22.8 77 -8.4 16.8
20:25 1022 30.18 852 25.16 -4.9 23.1 77 -8.4 16.8
20:30 1022 30.18 852 25.16 -5 23 76 -8.7 16.4
20:35 1022 30.18 851 25.13 -4.9 23.2 73 -8.9 15.9
20:40 1022 30.18 852 25.16 -4.8 23.4 72 -9.2 15.5
20:45 1022 30.18 852 25.16 -4.5 24 71 -9 15.8
20:50 1022 30.18 852 25.16 -4.2 24.4 71 -8.8 16.2
20:55 1022 30.18 852 25.16 -4.1 24.6 70 -8.8 16.2
21:00 1022 30.18 852 25.16 -4.3 24.3 72 -8.7 16.4
21:05 1022 30.18 852 25.16 -4.3 24.3 72 -8.6 16.4
21:10 1022 30.18 851 25.13 -4.1 24.5 73 -8.4 16.9
21:15 1022 30.18 852 25.16 -3.5 25.7 71 -8.1 17.4
21:20 1022 30.18 852 25.16 -3.5 25.6 74 -7.5 18.6
21:25 1022 30.18 851 25.13 -2.7 27.1 69 -7.7 18.1
21:30 1022 30.18 852 25.16 -2.8 27 72 -7.2 19
21:35 1022 30.18 851 25.13 -2.8 27 70 -7.4 18.7
21:40 1022 30.18 851 25.13 -2.9 26.8 71 -7.5 18.5
21:45 1022 30.18 852 25.16 -3.2 26.2 72 -7.6 18.4
21:50 1023 30.21 852 25.16 -3.4 25.9 73 -7.6 18.3
21:55 1023 30.21 852 25.16 -3.4 25.8 73 -7.7 18.1
22:00 1023 30.21 852 25.16 -3.5 25.7 73 -7.7 18.2
22:05 1023 30.21 852 25.16 -3.4 25.8 72 -7.8 18
22:10 1023 30.21 852 25.16 -3.3 26 71 -7.9 17.7
22:15 1023 30.21 852 25.16 -3.3 26 71 -7.9 17.8
22:20 1023 30.21 852 25.16 -3.6 25.5 73 -7.8 17.9
22:25 1023 30.21 852 25.16 -3.9 24.9 75 -7.8 18
22:30 1023 30.21 852 25.16 -4 24.8 75 -7.7 18.1
22:35 1023 30.21 852 25.16 -4.1 24.6 76 -7.8 18
22:40 1023 30.21 852 25.16 -4 24.8 74 -7.9 17.7
22:45 1023 30.21 852 25.16 -3.7 25.3 77 -7.1 19.1
22:50 1023 30.21 852 25.16 -3.4 25.9 77 -6.9 19.7
22:55 1023 30.21 852 25.16 -3.1 26.4 77 -6.6 20.1
23:00 1023 30.21 852 25.16 -2.8 26.9 77 -6.4 20.5
23:05 1023 30.21 852 25.16 -2.8 26.9 76 -6.5 20.3
23:10 1023 30.21 852 25.16 -2.9 26.7 75 -6.7 19.9
23:15 1023 30.21 852 25.16 -2.8 26.9 75 -6.7 19.9
23:20 1023 30.21 852 25.16 -3.1 26.4 75 -7 19.4
23:25 1023 30.21 852 25.16 -3.1 26.4 75 -6.9 19.6
23:30 1023 30.21 852 25.16 -3.2 26.2 76 -6.9 19.5
23:35 1023 30.21 852 25.16 -3.2 26.2 78 -6.6 20.1
23:40 1023 30.21 852 25.16 -3.4 26 79 -6.4 20.5
23:45 1023 30.21 852 25.16 -3.4 25.9 81 -6.3 20.7
23:50 1023 30.21 852 25.16 -3.1 26.5 80 -6.1 21
23:55 1023 30.21 852 25.16 -2.4 27.7 78 -5.7 21.7
24:00 1023 30.21 853 25.19 -1.5 29.4 72 -5.9 21.4